sensor_id;sensor_type;location;lat;lon;timestamp;pressure;altitude;pressure_sealevel;temperature;humidity
49473;BME280;67434;50.956;6.918;2023-04-06T00:02:12;101361.28;;;2.63;70.95
49473;BME280;67434;50.956;6.918;2023-04-06T00:04:57;101355.03;;;2.56;71.08
49473;BME280;67434;50.956;6.918;2023-04-06T00:07:43;101356.88;;;2.55;70.50
49473;BME280;67434;50.956;6.918;2023-04-06T00:10:29;101355.84;;;2.56;71.56
49473;BME280;67434;50.956;6.918;2023-04-06T00:13:14;101358.69;;;2.69;70.11
49473;BME280;67434;50.956;6.918;2023-04-06T00:16:00;101360.47;;;2.62;70.30
49473;BME280;67434;50.956;6.918;2023-04-06T00:18:46;101354.94;;;2.64;70.34
49473;BME280;67434;50.956;6.918;2023-04-06T00:21:32;101364.44;;;2.51;70.31
49473;BME280;67434;50.956;6.918;2023-04-06T00:24:18;101357.00;;;2.47;71.03
49473;BME280;67434;50.956;6.918;2023-04-06T00:27:04;101352.50;;;2.47;71.73
49473;BME280;67434;50.956;6.918;2023-04-06T00:29:50;101350.00;;;2.46;71.45
49473;BME280;67434;50.956;6.918;2023-04-06T00:32:35;101347.53;;;2.44;71.46
49473;BME280;67434;50.956;6.918;2023-04-06T00:35:21;101348.81;;;2.48;70.78
49473;BME280;67434;50.956;6.918;2023-04-06T00:38:07;101339.06;;;2.41;70.95
49473;BME280;67434;50.956;6.918;2023-04-06T00:40:52;101341.88;;;2.33;71.49
49473;BME280;67434;50.956;6.918;2023-04-06T00:43:38;101334.88;;;2.32;71.40
49473;BME280;67434;50.956;6.918;2023-04-06T00:46:24;101339.13;;;2.26;71.67
49473;BME280;67434;50.956;6.918;2023-04-06T00:49:09;101338.13;;;2.27;71.20
49473;BME280;67434;50.956;6.918;2023-04-06T00:51:55;101334.50;;;2.20;71.71
49473;BME280;67434;50.956;6.918;2023-04-06T00:54:41;101329.75;;;2.15;71.35
49473;BME280;67434;50.956;6.918;2023-04-06T00:57:27;101328.34;;;2.19;71.32
49473;BME280;67434;50.956;6.918;2023-04-06T01:00:13;101324.31;;;2.24;70.31
49473;BME280;67434;50.956;6.918;2023-04-06T01:02:59;101322.09;;;2.27;69.92
49473;BME280;67434;50.956;6.918;2023-04-06T01:05:45;101323.25;;;2.39;69.46
49473;BME280;67434;50.956;6.918;2023-04-06T01:08:30;101309.53;;;2.42;68.76
49473;BME280;67434;50.956;6.918;2023-04-06T01:11:17;101299.44;;;2.38;68.05
49473;BME280;67434;50.956;6.918;2023-04-06T01:16:30;101297.53;;;2.32;67.78
49473;BME280;67434;50.956;6.918;2023-04-06T01:19:16;101293.78;;;2.26;67.97
49473;BME280;67434;50.956;6.918;2023-04-06T01:22:02;101282.53;;;2.31;67.25
49473;BME280;67434;50.956;6.918;2023-04-06T01:24:47;101285.78;;;2.26;67.19
49473;BME280;67434;50.956;6.918;2023-04-06T01:27:33;101282.00;;;2.20;67.32
49473;BME280;67434;50.956;6.918;2023-04-06T01:30:19;101280.31;;;2.34;66.42
49473;BME280;67434;50.956;6.918;2023-04-06T01:33:05;101286.16;;;2.23;66.73
49473;BME280;67434;50.956;6.918;2023-04-06T01:35:50;101282.63;;;2.23;66.37
49473;BME280;67434;50.956;6.918;2023-04-06T01:38:36;101285.88;;;2.18;66.56
49473;BME280;67434;50.956;6.918;2023-04-06T01:41:22;101279.44;;;2.12;67.39
49473;BME280;67434;50.956;6.918;2023-04-06T01:44:07;101283.50;;;2.08;67.52
49473;BME280;67434;50.956;6.918;2023-04-06T01:46:53;101276.22;;;2.17;66.91
49473;BME280;67434;50.956;6.918;2023-04-06T01:49:39;101274.69;;;2.08;66.81
49473;BME280;67434;50.956;6.918;2023-04-06T01:52:24;101273.78;;;2.01;67.31
49473;BME280;67434;50.956;6.918;2023-04-06T01:55:10;101272.44;;;1.90;67.38
49473;BME280;67434;50.956;6.918;2023-04-06T01:57:56;101271.63;;;1.90;67.55
49473;BME280;67434;50.956;6.918;2023-04-06T02:00:41;101265.72;;;1.94;67.71
49473;BME280;67434;50.956;6.918;2023-04-06T02:03:27;101266.28;;;1.90;67.07
49473;BME280;67434;50.956;6.918;2023-04-06T02:06:13;101262.59;;;1.91;66.97
49473;BME280;67434;50.956;6.918;2023-04-06T02:08:58;101267.09;;;1.90;66.80
49473;BME280;67434;50.956;6.918;2023-04-06T02:11:44;101264.44;;;1.90;67.12
49473;BME280;67434;50.956;6.918;2023-04-06T02:14:29;101264.34;;;1.83;67.25
49473;BME280;67434;50.956;6.918;2023-04-06T02:17:15;101256.72;;;1.80;67.65
49473;BME280;67434;50.956;6.918;2023-04-06T02:20:01;101258.56;;;1.80;67.82
49473;BME280;67434;50.956;6.918;2023-04-06T02:22:46;101262.69;;;1.82;67.73
49473;BME280;67434;50.956;6.918;2023-04-06T02:25:32;101253.59;;;1.77;68.26
49473;BME280;67434;50.956;6.918;2023-04-06T02:28:18;101262.16;;;1.72;68.47
49473;BME280;67434;50.956;6.918;2023-04-06T02:31:03;101258.59;;;1.65;68.36
49473;BME280;67434;50.956;6.918;2023-04-06T02:33:49;101258.97;;;1.62;68.38
49473;BME280;67434;50.956;6.918;2023-04-06T02:36:35;101257.75;;;1.65;68.59
49473;BME280;67434;50.956;6.918;2023-04-06T02:39:20;101257.56;;;1.66;68.62
49473;BME280;67434;50.956;6.918;2023-04-06T02:42:06;101256.94;;;1.64;68.27
49473;BME280;67434;50.956;6.918;2023-04-06T02:44:51;101249.69;;;1.58;68.40
49473;BME280;67434;50.956;6.918;2023-04-06T02:47:37;101252.63;;;1.63;68.68
49473;BME280;67434;50.956;6.918;2023-04-06T02:50:23;101251.34;;;1.59;68.57
49473;BME280;67434;50.956;6.918;2023-04-06T02:53:08;101248.94;;;1.64;68.57
49473;BME280;67434;50.956;6.918;2023-04-06T02:55:54;101252.16;;;1.60;68.57
49473;BME280;67434;50.956;6.918;2023-04-06T02:58:41;101246.72;;;1.68;67.97
49473;BME280;67434;50.956;6.918;2023-04-06T03:01:27;101247.66;;;1.60;67.71
49473;BME280;67434;50.956;6.918;2023-04-06T03:04:12;101246.56;;;1.54;68.58
49473;BME280;67434;50.956;6.918;2023-04-06T03:06:58;101244.72;;;1.55;68.12
49473;BME280;67434;50.956;6.918;2023-04-06T03:09:43;101250.06;;;1.55;68.50
49473;BME280;67434;50.956;6.918;2023-04-06T03:12:29;101248.28;;;1.47;69.11
49473;BME280;67434;50.956;6.918;2023-04-06T03:15:15;101250.25;;;1.53;68.43
49473;BME280;67434;50.956;6.918;2023-04-06T03:18:00;101240.59;;;1.52;68.93
49473;BME280;67434;50.956;6.918;2023-04-06T03:20:46;101240.31;;;1.47;68.69
49473;BME280;67434;50.956;6.918;2023-04-06T03:23:32;101235.66;;;1.49;68.50
49473;BME280;67434;50.956;6.918;2023-04-06T03:26:18;101237.38;;;1.42;69.09
49473;BME280;67434;50.956;6.918;2023-04-06T03:29:04;101237.75;;;1.39;69.16
49473;BME280;67434;50.956;6.918;2023-04-06T03:31:49;101239.94;;;1.36;69.11
49473;BME280;67434;50.956;6.918;2023-04-06T03:34:35;101237.00;;;1.31;69.76
49473;BME280;67434;50.956;6.918;2023-04-06T03:37:20;101240.03;;;1.28;70.30
49473;BME280;67434;50.956;6.918;2023-04-06T03:40:07;101232.41;;;1.24;70.65
49473;BME280;67434;50.956;6.918;2023-04-06T03:42:52;101236.47;;;1.20;70.57
49473;BME280;67434;50.956;6.918;2023-04-06T03:45:38;101245.38;;;1.28;70.47
49473;BME280;67434;50.956;6.918;2023-04-06T03:48:24;101240.78;;;1.36;70.38
49473;BME280;67434;50.956;6.918;2023-04-06T03:51:09;101239.13;;;1.35;70.07
49473;BME280;67434;50.956;6.918;2023-04-06T03:53:55;101242.50;;;1.44;69.64
49473;BME280;67434;50.956;6.918;2023-04-06T03:56:41;101240.97;;;1.35;70.20
49473;BME280;67434;50.956;6.918;2023-04-06T03:59:26;101238.09;;;1.36;69.84
49473;BME280;67434;50.956;6.918;2023-04-06T04:02:12;101236.91;;;1.39;69.57
49473;BME280;67434;50.956;6.918;2023-04-06T04:04:58;101243.63;;;1.35;69.98
49473;BME280;67434;50.956;6.918;2023-04-06T04:07:43;101237.28;;;1.36;70.24
49473;BME280;67434;50.956;6.918;2023-04-06T04:10:29;101242.91;;;1.26;70.14
49473;BME280;67434;50.956;6.918;2023-04-06T04:13:15;101243.53;;;1.28;70.15
49473;BME280;67434;50.956;6.918;2023-04-06T04:16:01;101236.56;;;1.27;69.51
49473;BME280;67434;50.956;6.918;2023-04-06T04:18:47;101239.78;;;1.22;69.60
49473;BME280;67434;50.956;6.918;2023-04-06T04:21:34;101239.78;;;1.22;69.53
49473;BME280;67434;50.956;6.918;2023-04-06T04:24:19;101241.06;;;1.27;69.70
49473;BME280;67434;50.956;6.918;2023-04-06T04:27:05;101246.38;;;1.27;69.71
49473;BME280;67434;50.956;6.918;2023-04-06T04:29:50;101244.00;;;1.32;69.81
49473;BME280;67434;50.956;6.918;2023-04-06T04:32:36;101245.09;;;1.22;69.60
49473;BME280;67434;50.956;6.918;2023-04-06T04:35:22;101245.84;;;1.16;70.22
49473;BME280;67434;50.956;6.918;2023-04-06T04:38:07;101250.69;;;1.13;70.40
49473;BME280;67434;50.956;6.918;2023-04-06T04:40:53;101240.19;;;1.11;71.77
49473;BME280;67434;50.956;6.918;2023-04-06T04:43:38;101239.41;;;1.25;69.98
49473;BME280;67434;50.956;6.918;2023-04-06T04:46:24;101247.66;;;1.31;69.85
49473;BME280;67434;50.956;6.918;2023-04-06T04:49:10;101242.34;;;1.31;70.04
49473;BME280;67434;50.956;6.918;2023-04-06T04:51:55;101251.78;;;1.33;69.53
49473;BME280;67434;50.956;6.918;2023-04-06T04:54:41;101244.91;;;1.39;68.52
49473;BME280;67434;50.956;6.918;2023-04-06T04:57:27;101242.97;;;1.33;67.94
49473;BME280;67434;50.956;6.918;2023-04-06T05:00:13;101250.97;;;1.33;67.55
49473;BME280;67434;50.956;6.918;2023-04-06T05:02:59;101248.31;;;1.33;67.61
49473;BME280;67434;50.956;6.918;2023-04-06T05:05:44;101250.03;;;1.40;66.96
49473;BME280;67434;50.956;6.918;2023-04-06T05:08:30;101254.19;;;1.43;66.96
49473;BME280;67434;50.956;6.918;2023-04-06T05:11:16;101255.94;;;1.36;67.35
49473;BME280;67434;50.956;6.918;2023-04-06T05:14:02;101247.38;;;1.40;66.99
49473;BME280;67434;50.956;6.918;2023-04-06T05:16:47;101246.56;;;1.40;67.13
49473;BME280;67434;50.956;6.918;2023-04-06T05:19:33;101239.97;;;1.50;66.76
49473;BME280;67434;50.956;6.918;2023-04-06T05:22:19;101248.03;;;1.57;66.17
49473;BME280;67434;50.956;6.918;2023-04-06T05:25:05;101252.34;;;1.58;66.02
49473;BME280;67434;50.956;6.918;2023-04-06T05:27:51;101251.34;;;1.59;66.19
49473;BME280;67434;50.956;6.918;2023-04-06T05:30:37;101249.13;;;1.63;65.86
49473;BME280;67434;50.956;6.918;2023-04-06T05:33:24;101250.47;;;1.73;65.79
49473;BME280;67434;50.956;6.918;2023-04-06T05:36:10;101250.66;;;1.72;65.61
49473;BME280;67434;50.956;6.918;2023-04-06T05:38:56;101249.09;;;1.77;65.46
49473;BME280;67434;50.956;6.918;2023-04-06T05:41:41;101247.88;;;1.95;64.99
49473;BME280;67434;50.956;6.918;2023-04-06T05:44:27;101255.06;;;1.94;64.49
49473;BME280;67434;50.956;6.918;2023-04-06T05:47:13;101255.19;;;2.07;63.86
49473;BME280;67434;50.956;6.918;2023-04-06T05:49:58;101252.84;;;2.19;63.88
49473;BME280;67434;50.956;6.918;2023-04-06T05:52:44;101258.72;;;2.29;63.59
49473;BME280;67434;50.956;6.918;2023-04-06T05:55:31;101254.59;;;2.27;63.54
49473;BME280;67434;50.956;6.918;2023-04-06T05:58:17;101263.69;;;2.32;63.33
49473;BME280;67434;50.956;6.918;2023-04-06T06:01:03;101264.38;;;2.41;63.26
49473;BME280;67434;50.956;6.918;2023-04-06T06:03:50;101263.22;;;2.50;62.84
49473;BME280;67434;50.956;6.918;2023-04-06T06:06:35;101244.06;;;2.61;62.97
49473;BME280;67434;50.956;6.918;2023-04-06T06:09:22;101251.09;;;2.69;62.59
49473;BME280;67434;50.956;6.918;2023-04-06T06:12:07;101245.59;;;2.77;62.14
49473;BME280;67434;50.956;6.918;2023-04-06T06:14:54;101243.38;;;2.80;62.40
49473;BME280;67434;50.956;6.918;2023-04-06T06:17:40;101245.91;;;2.89;61.88
49473;BME280;67434;50.956;6.918;2023-04-06T06:20:26;101243.28;;;2.95;62.32
49473;BME280;67434;50.956;6.918;2023-04-06T06:23:12;101248.25;;;2.98;61.99
49473;BME280;67434;50.956;6.918;2023-04-06T06:25:57;101241.53;;;3.09;62.32
49473;BME280;67434;50.956;6.918;2023-04-06T06:28:43;101245.75;;;3.25;61.97
49473;BME280;67434;50.956;6.918;2023-04-06T06:31:29;101243.78;;;3.40;61.63
49473;BME280;67434;50.956;6.918;2023-04-06T06:34:15;101243.88;;;3.60;61.13
49473;BME280;67434;50.956;6.918;2023-04-06T06:37:00;101249.25;;;3.66;60.45
49473;BME280;67434;50.956;6.918;2023-04-06T06:39:47;101247.69;;;3.79;60.23
49473;BME280;67434;50.956;6.918;2023-04-06T06:42:33;101253.25;;;3.84;60.18
49473;BME280;67434;50.956;6.918;2023-04-06T06:45:18;101240.09;;;3.89;60.33
49473;BME280;67434;50.956;6.918;2023-04-06T06:48:05;101243.69;;;4.09;59.11
49473;BME280;67434;50.956;6.918;2023-04-06T06:50:51;101250.06;;;4.15;59.24
49473;BME280;67434;50.956;6.918;2023-04-06T06:53:36;101247.41;;;4.21;59.41
49473;BME280;67434;50.956;6.918;2023-04-06T06:56:22;101242.69;;;4.36;58.59
49473;BME280;67434;50.956;6.918;2023-04-06T06:59:07;101236.13;;;4.52;58.03
49473;BME280;67434;50.956;6.918;2023-04-06T07:01:53;101227.06;;;4.66;57.83
49473;BME280;67434;50.956;6.918;2023-04-06T07:04:39;101231.81;;;4.91;57.64
49473;BME280;67434;50.956;6.918;2023-04-06T07:07:24;101235.88;;;5.20;56.73
49473;BME280;67434;50.956;6.918;2023-04-06T07:10:10;101221.63;;;5.39;56.32
49473;BME280;67434;50.956;6.918;2023-04-06T07:12:56;101223.63;;;5.63;55.52
49473;BME280;67434;50.956;6.918;2023-04-06T07:15:42;101223.91;;;5.87;54.66
49473;BME280;67434;50.956;6.918;2023-04-06T07:18:28;101224.38;;;6.22;54.04
49473;BME280;67434;50.956;6.918;2023-04-06T07:21:14;101225.09;;;6.42;53.48
49473;BME280;67434;50.956;6.918;2023-04-06T07:24:00;101215.56;;;6.71;52.65
49473;BME280;67434;50.956;6.918;2023-04-06T07:26:45;101215.59;;;6.89;51.60
49473;BME280;67434;50.956;6.918;2023-04-06T07:29:31;101217.69;;;7.12;51.56
49473;BME280;67434;50.956;6.918;2023-04-06T07:32:17;101216.63;;;7.32;52.01
49473;BME280;67434;50.956;6.918;2023-04-06T07:35:03;101219.84;;;7.59;50.80
49473;BME280;67434;50.956;6.918;2023-04-06T07:37:49;101226.44;;;7.81;50.25
49473;BME280;67434;50.956;6.918;2023-04-06T07:40:35;101217.06;;;7.83;50.34
49473;BME280;67434;50.956;6.918;2023-04-06T07:43:21;101222.59;;;7.89;49.70
49473;BME280;67434;50.956;6.918;2023-04-06T07:46:06;101214.81;;;8.10;48.96
49473;BME280;67434;50.956;6.918;2023-04-06T07:48:52;101217.13;;;8.25;48.77
49473;BME280;67434;50.956;6.918;2023-04-06T07:51:39;101211.63;;;8.32;48.42
49473;BME280;67434;50.956;6.918;2023-04-06T07:54:25;101215.31;;;8.37;48.33
49473;BME280;67434;50.956;6.918;2023-04-06T07:57:10;101212.84;;;8.36;48.37
49473;BME280;67434;50.956;6.918;2023-04-06T07:59:56;101204.84;;;8.29;48.46
49473;BME280;67434;50.956;6.918;2023-04-06T08:02:42;101218.19;;;8.24;48.82
49473;BME280;67434;50.956;6.918;2023-04-06T08:05:28;101206.59;;;8.24;49.23
49473;BME280;67434;50.956;6.918;2023-04-06T08:08:13;101213.19;;;8.39;48.75
49473;BME280;67434;50.956;6.918;2023-04-06T08:10:59;101210.06;;;8.54;48.73
49473;BME280;67434;50.956;6.918;2023-04-06T08:13:45;101200.03;;;8.85;47.88
49473;BME280;67434;50.956;6.918;2023-04-06T08:16:31;101202.41;;;8.93;47.33
49473;BME280;67434;50.956;6.918;2023-04-06T08:19:16;101203.06;;;9.35;47.00
49473;BME280;67434;50.956;6.918;2023-04-06T08:22:04;101204.84;;;9.29;47.27
49473;BME280;67434;50.956;6.918;2023-04-06T08:24:50;101199.88;;;9.26;46.98
49473;BME280;67434;50.956;6.918;2023-04-06T08:27:36;101200.91;;;9.49;46.49
49473;BME280;67434;50.956;6.918;2023-04-06T08:30:21;101195.25;;;9.62;46.80
49473;BME280;67434;50.956;6.918;2023-04-06T08:33:07;101196.03;;;9.74;45.96
49473;BME280;67434;50.956;6.918;2023-04-06T08:35:53;101203.09;;;9.75;45.83
49473;BME280;67434;50.956;6.918;2023-04-06T08:38:40;101197.88;;;9.85;46.38
49473;BME280;67434;50.956;6.918;2023-04-06T08:41:27;101190.44;;;9.92;45.29
49473;BME280;67434;50.956;6.918;2023-04-06T08:44:13;101194.50;;;10.07;44.98
49473;BME280;67434;50.956;6.918;2023-04-06T08:46:59;101199.91;;;10.07;45.54
49473;BME280;67434;50.956;6.918;2023-04-06T08:49:45;101190.16;;;10.34;45.20
49473;BME280;67434;50.956;6.918;2023-04-06T08:52:32;101186.38;;;10.35;44.33
49473;BME280;67434;50.956;6.918;2023-04-06T08:55:21;101181.91;;;10.57;44.18
49473;BME280;67434;50.956;6.918;2023-04-06T08:58:08;101182.22;;;10.78;43.47
49473;BME280;67434;50.956;6.918;2023-04-06T09:00:54;101188.25;;;11.18;43.02
49473;BME280;67434;50.956;6.918;2023-04-06T09:03:40;101182.84;;;11.62;42.75
49473;BME280;67434;50.956;6.918;2023-04-06T09:06:27;101174.56;;;11.91;41.15
49473;BME280;67434;50.956;6.918;2023-04-06T09:09:13;101176.94;;;12.14;40.71
49473;BME280;67434;50.956;6.918;2023-04-06T09:11:59;101173.94;;;12.42;40.80
49473;BME280;67434;50.956;6.918;2023-04-06T09:14:51;101173.34;;;12.67;40.07
49473;BME280;67434;50.956;6.918;2023-04-06T09:17:36;101172.06;;;12.80;39.72
49473;BME280;67434;50.956;6.918;2023-04-06T09:20:23;101179.84;;;12.66;39.48
49473;BME280;67434;50.956;6.918;2023-04-06T09:23:18;101173.75;;;12.86;39.35
49473;BME280;67434;50.956;6.918;2023-04-06T09:26:12;101174.88;;;12.95;39.54
49473;BME280;67434;50.956;6.918;2023-04-06T09:28:58;101168.72;;;13.05;40.14
49473;BME280;67434;50.956;6.918;2023-04-06T09:31:46;101169.00;;;13.08;39.61
49473;BME280;67434;50.956;6.918;2023-04-06T09:34:33;101166.94;;;13.21;39.49
49473;BME280;67434;50.956;6.918;2023-04-06T09:37:19;101163.72;;;13.34;39.90
49473;BME280;67434;50.956;6.918;2023-04-06T09:40:06;101152.13;;;13.43;39.44
49473;BME280;67434;50.956;6.918;2023-04-06T09:42:52;101155.97;;;13.58;39.45
49473;BME280;67434;50.956;6.918;2023-04-06T09:45:41;101155.16;;;13.57;38.80
49473;BME280;67434;50.956;6.918;2023-04-06T09:48:27;101150.06;;;13.91;39.24
49473;BME280;67434;50.956;6.918;2023-04-06T09:51:16;101150.63;;;13.88;38.46
49473;BME280;67434;50.956;6.918;2023-04-06T09:54:04;101146.81;;;13.79;38.50
49473;BME280;67434;50.956;6.918;2023-04-06T10:00:06;101155.78;;;13.80;38.75
49473;BME280;67434;50.956;6.918;2023-04-06T10:03:36;101149.84;;;14.28;38.14
49473;BME280;67434;50.956;6.918;2023-04-06T10:06:28;101143.88;;;14.31;38.11
49473;BME280;67434;50.956;6.918;2023-04-06T10:09:21;101138.44;;;14.42;37.89
49473;BME280;67434;50.956;6.918;2023-04-06T10:12:10;101145.81;;;14.56;37.83
49473;BME280;67434;50.956;6.918;2023-04-06T10:14:58;101140.88;;;14.74;37.60
49473;BME280;67434;50.956;6.918;2023-04-06T10:17:46;101144.13;;;14.81;37.87
49473;BME280;67434;50.956;6.918;2023-04-06T10:20:39;101146.00;;;15.00;37.38
49473;BME280;67434;50.956;6.918;2023-04-06T10:23:51;101150.81;;;15.34;37.68
49473;BME280;67434;50.956;6.918;2023-04-06T10:26:37;101141.72;;;15.59;36.32
49473;BME280;67434;50.956;6.918;2023-04-06T10:29:23;101142.94;;;15.87;35.87
49473;BME280;67434;50.956;6.918;2023-04-06T10:32:09;101142.75;;;15.73;35.80
49473;BME280;67434;50.956;6.918;2023-04-06T10:35:05;101134.13;;;15.46;36.38
49473;BME280;67434;50.956;6.918;2023-04-06T10:38:00;101137.00;;;15.05;36.59
49473;BME280;67434;50.956;6.918;2023-04-06T10:40:46;101132.34;;;15.16;36.22
49473;BME280;67434;50.956;6.918;2023-04-06T10:43:36;101129.50;;;15.46;35.98
49473;BME280;67434;50.956;6.918;2023-04-06T10:46:26;101123.53;;;15.44;36.21
49473;BME280;67434;50.956;6.918;2023-04-06T10:49:12;101124.38;;;15.40;36.02
49473;BME280;67434;50.956;6.918;2023-04-06T10:51:58;101121.34;;;15.46;35.57
49473;BME280;67434;50.956;6.918;2023-04-06T10:54:44;101127.69;;;15.31;35.24
49473;BME280;67434;50.956;6.918;2023-04-06T10:57:30;101120.34;;;15.17;34.55
49473;BME280;67434;50.956;6.918;2023-04-06T11:00:19;101124.19;;;15.11;35.31
49473;BME280;67434;50.956;6.918;2023-04-06T11:03:05;101119.28;;;15.13;35.05
49473;BME280;67434;50.956;6.918;2023-04-06T11:05:51;101110.25;;;15.22;35.35
49473;BME280;67434;50.956;6.918;2023-04-06T11:08:37;101113.09;;;14.82;35.76
49473;BME280;67434;50.956;6.918;2023-04-06T11:11:25;101105.78;;;14.72;36.29
49473;BME280;67434;50.956;6.918;2023-04-06T11:14:13;101107.16;;;14.64;35.98
49473;BME280;67434;50.956;6.918;2023-04-06T11:16:59;101106.56;;;14.83;36.19
49473;BME280;67434;50.956;6.918;2023-04-06T11:19:44;101111.00;;;15.43;35.52
49473;BME280;67434;50.956;6.918;2023-04-06T11:22:31;101110.94;;;15.53;34.84
49473;BME280;67434;50.956;6.918;2023-04-06T11:25:17;101108.47;;;15.67;34.98
49473;BME280;67434;50.956;6.918;2023-04-06T11:28:03;101112.81;;;15.68;33.30
49473;BME280;67434;50.956;6.918;2023-04-06T11:30:48;101111.97;;;15.03;34.01
49473;BME280;67434;50.956;6.918;2023-04-06T11:33:38;101110.50;;;15.36;34.57
49473;BME280;67434;50.956;6.918;2023-04-06T11:36:27;101108.59;;;15.86;33.57
49473;BME280;67434;50.956;6.918;2023-04-06T11:39:22;101114.66;;;15.78;32.70
49473;BME280;67434;50.956;6.918;2023-04-06T11:42:09;101112.25;;;15.71;32.89
49473;BME280;67434;50.956;6.918;2023-04-06T11:44:56;101108.50;;;15.62;33.39
49473;BME280;67434;50.956;6.918;2023-04-06T11:47:42;101105.06;;;15.31;33.91
49473;BME280;67434;50.956;6.918;2023-04-06T11:50:32;101106.56;;;15.57;33.37
49473;BME280;67434;50.956;6.918;2023-04-06T11:53:21;101099.75;;;15.60;33.93
49473;BME280;67434;50.956;6.918;2023-04-06T11:56:06;101092.03;;;16.16;33.67
49473;BME280;67434;50.956;6.918;2023-04-06T11:58:54;101081.31;;;16.54;32.28
49473;BME280;67434;50.956;6.918;2023-04-06T12:01:47;101100.13;;;16.55;32.63
49473;BME280;67434;50.956;6.918;2023-04-06T12:04:33;101092.69;;;16.61;31.85
49473;BME280;67434;50.956;6.918;2023-04-06T12:07:19;101086.84;;;16.78;31.45
49473;BME280;67434;50.956;6.918;2023-04-06T12:10:05;101090.56;;;16.87;31.58
49473;BME280;67434;50.956;6.918;2023-04-06T12:12:50;101082.66;;;16.85;31.92
49473;BME280;67434;50.956;6.918;2023-04-06T12:15:36;101085.38;;;16.56;31.55
49473;BME280;67434;50.956;6.918;2023-04-06T12:18:22;101087.34;;;16.51;31.75
49473;BME280;67434;50.956;6.918;2023-04-06T12:21:08;101086.88;;;16.44;32.17
49473;BME280;67434;50.956;6.918;2023-04-06T12:23:54;101087.66;;;16.15;32.06
49473;BME280;67434;50.956;6.918;2023-04-06T12:26:40;101085.75;;;16.16;31.31
49473;BME280;67434;50.956;6.918;2023-04-06T12:29:26;101082.69;;;15.39;32.52
49473;BME280;67434;50.956;6.918;2023-04-06T12:32:12;101086.41;;;15.53;32.87
49473;BME280;67434;50.956;6.918;2023-04-06T12:34:58;101078.78;;;15.60;33.00
49473;BME280;67434;50.956;6.918;2023-04-06T12:37:44;101086.63;;;15.72;33.00
49473;BME280;67434;50.956;6.918;2023-04-06T12:40:29;101079.97;;;15.88;32.90
49473;BME280;67434;50.956;6.918;2023-04-06T12:43:15;101086.41;;;15.53;33.91
49473;BME280;67434;50.956;6.918;2023-04-06T12:46:01;101086.09;;;15.70;33.76
49473;BME280;67434;50.956;6.918;2023-04-06T12:48:47;101084.53;;;15.49;33.94
49473;BME280;67434;50.956;6.918;2023-04-06T12:51:33;101092.16;;;15.52;34.39
49473;BME280;67434;50.956;6.918;2023-04-06T12:54:19;101090.78;;;15.59;34.61
49473;BME280;67434;50.956;6.918;2023-04-06T12:57:05;101086.16;;;15.99;34.01
49473;BME280;67434;50.956;6.918;2023-04-06T12:59:51;101081.31;;;15.91;33.67
49473;BME280;67434;50.956;6.918;2023-04-06T13:02:36;101084.78;;;15.62;34.62
49473;BME280;67434;50.956;6.918;2023-04-06T13:05:22;101082.78;;;15.14;35.81
49473;BME280;67434;50.956;6.918;2023-04-06T13:08:08;101087.59;;;15.37;35.67
49473;BME280;67434;50.956;6.918;2023-04-06T13:10:54;101085.22;;;15.20;36.17
49473;BME280;67434;50.956;6.918;2023-04-06T13:13:40;101083.44;;;14.90;37.05
49473;BME280;67434;50.956;6.918;2023-04-06T13:16:27;101081.19;;;15.08;37.36
49473;BME280;67434;50.956;6.918;2023-04-06T13:19:12;101081.69;;;15.25;37.00
49473;BME280;67434;50.956;6.918;2023-04-06T13:21:58;101090.09;;;15.23;37.15
49473;BME280;67434;50.956;6.918;2023-04-06T13:24:45;101092.09;;;15.02;38.12
49473;BME280;67434;50.956;6.918;2023-04-06T13:27:31;101088.66;;;14.72;38.87
49473;BME280;67434;50.956;6.918;2023-04-06T13:30:19;101095.44;;;14.79;39.22
49473;BME280;67434;50.956;6.918;2023-04-06T13:33:05;101084.56;;;14.38;39.74
49473;BME280;67434;50.956;6.918;2023-04-06T13:35:51;101082.41;;;14.35;39.07
49473;BME280;67434;50.956;6.918;2023-04-06T13:38:37;101084.03;;;14.31;39.24
49473;BME280;67434;50.956;6.918;2023-04-06T13:41:25;101084.31;;;14.09;39.62
49473;BME280;67434;50.956;6.918;2023-04-06T13:44:11;101088.31;;;13.56;40.75
49473;BME280;67434;50.956;6.918;2023-04-06T13:46:57;101085.06;;;13.59;41.52
49473;BME280;67434;50.956;6.918;2023-04-06T13:49:43;101093.19;;;13.44;42.12
49473;BME280;67434;50.956;6.918;2023-04-06T13:52:29;101093.84;;;13.14;43.03
49473;BME280;67434;50.956;6.918;2023-04-06T13:55:15;101090.16;;;12.83;43.40
49473;BME280;67434;50.956;6.918;2023-04-06T13:58:01;101097.56;;;12.56;44.52
49473;BME280;67434;50.956;6.918;2023-04-06T14:00:46;101093.69;;;12.41;44.99
49473;BME280;67434;50.956;6.918;2023-04-06T14:03:33;101101.53;;;12.06;46.03
49473;BME280;67434;50.956;6.918;2023-04-06T14:06:19;101104.19;;;12.01;46.36
49473;BME280;67434;50.956;6.918;2023-04-06T14:09:05;101103.69;;;12.04;46.26
49473;BME280;67434;50.956;6.918;2023-04-06T14:11:51;101107.81;;;11.84;47.88
49473;BME280;67434;50.956;6.918;2023-04-06T14:14:36;101111.25;;;12.02;48.03
49473;BME280;67434;50.956;6.918;2023-04-06T14:17:22;101107.50;;;12.08;48.14
49473;BME280;67434;50.956;6.918;2023-04-06T14:20:08;101104.81;;;12.40;47.75
49473;BME280;67434;50.956;6.918;2023-04-06T14:23:02;101114.00;;;12.76;47.63
49473;BME280;67434;50.956;6.918;2023-04-06T14:25:48;101100.16;;;12.72;48.51
49473;BME280;67434;50.956;6.918;2023-04-06T14:28:35;101110.63;;;12.59;49.07
49473;BME280;67434;50.956;6.918;2023-04-06T14:31:21;101107.28;;;12.46;49.75
49473;BME280;67434;50.956;6.918;2023-04-06T14:34:07;101120.63;;;12.21;50.49
49473;BME280;67434;50.956;6.918;2023-04-06T14:36:52;101113.91;;;11.97;51.12
49473;BME280;67434;50.956;6.918;2023-04-06T14:39:38;101118.09;;;12.09;50.86
49473;BME280;67434;50.956;6.918;2023-04-06T14:42:24;101110.03;;;11.87;51.44